Roselle, Illinois
Current Conditions -  °F | °C
As of 5:51 PM on Monday 20 Oct 2014 (Local Time) from KORD Reporting Station
Broken Clouds Broken Clouds  
Wind Chill: 56°   Ceiling: 6000
Heat Index: 56°   Visibility: 10mi
Dew Point: 44°   Wind: 7mph
Humidity: 64%   Direction: 60°ENE
Pressure: 29.93"   Gusts: NA
Location:  41.98°N, 88.08°W
Report Text: KORD 202251Z 06006KT 10SM BKN060 13/07 A2993 RMK AO2 SLP136 T01330067 $
Loading
Personal Weather Stations






























Interactive Weather Map
Tropical Storm Tracking
New forecast layout! Learn more

10-Day Weather Forecast

Advertisements
Track Severe Weather on mobile